createdAt,value
2022-08-28T00:00:25.392Z,101346.31
2022-08-28T00:02:52.882Z,101344.31
2022-08-28T00:05:21.161Z,101345.41
2022-08-28T00:07:48.161Z,101347.69
2022-08-28T00:10:17.028Z,101344.47
2022-08-28T00:12:45.004Z,101345.97
2022-08-28T00:15:16.269Z,101342.66
2022-08-28T00:17:43.385Z,101344.34
2022-08-28T00:20:11.635Z,101340.94
2022-08-28T00:22:38.939Z,101342.19
2022-08-28T00:25:07.821Z,101340.59
2022-08-28T00:27:52.708Z,101345.53
2022-08-28T00:30:31.779Z,101347.84
2022-08-28T00:33:01.858Z,101348.69
2022-08-28T00:35:29.029Z,101347.97
2022-08-28T00:37:58.088Z,101351.91
2022-08-28T00:40:30.606Z,101352.13
2022-08-28T00:43:01.431Z,101353.06
2022-08-28T00:45:28.756Z,101358.66
2022-08-28T00:47:55.419Z,101353.50
2022-08-28T00:50:27.197Z,101355.09
2022-08-28T00:52:58.477Z,101354.84
2022-08-28T00:55:27.122Z,101355.50
2022-08-28T00:57:56.984Z,101352.06
2022-08-28T01:00:32.368Z,101356.00
2022-08-28T01:02:59.181Z,101354.75
2022-08-28T01:05:27.039Z,101355.63
2022-08-28T01:07:54.429Z,101353.97
2022-08-28T01:10:22.876Z,101373.16
2022-08-28T01:12:50.295Z,101364.38
2022-08-28T01:15:19.871Z,101359.94
2022-08-28T01:17:49.649Z,101367.66
2022-08-28T01:20:19.639Z,101362.78
2022-08-28T01:22:54.121Z,101371.19
2022-08-28T01:25:22.309Z,101365.72
2022-08-28T01:27:49.080Z,101371.97
2022-08-28T01:30:19.769Z,101379.78
2022-08-28T01:32:49.564Z,101371.75
2022-08-28T01:35:20.397Z,101370.16
2022-08-28T01:37:47.544Z,101374.66
2022-08-28T01:40:18.277Z,101375.38
2022-08-28T01:42:45.088Z,101371.22
2022-08-28T01:45:14.857Z,101377.47
2022-08-28T01:47:43.323Z,101377.47
2022-08-28T01:50:12.526Z,101381.22
2022-08-28T01:52:39.441Z,101376.09
2022-08-28T01:55:07.383Z,101380.41
2022-08-28T01:57:34.385Z,101371.72
2022-08-28T02:00:01.258Z,101367.97
2022-08-28T02:02:28.004Z,101359.91
2022-08-28T02:04:54.690Z,101366.13
2022-08-28T02:07:21.607Z,101365.28
2022-08-28T02:09:48.320Z,101370.28
2022-08-28T02:12:15.188Z,101365.78
2022-08-28T02:14:41.909Z,101373.19
2022-08-28T02:17:08.607Z,101371.22
2022-08-28T02:19:35.556Z,101371.97
2022-08-28T02:22:04.120Z,101382.59
2022-08-28T02:24:30.857Z,101373.69
2022-08-28T02:26:57.648Z,101379.56
2022-08-28T02:29:26.236Z,101378.72
2022-08-28T02:31:53.083Z,101378.44
2022-08-28T02:34:19.853Z,101384.59
2022-08-28T02:36:46.483Z,101388.47
2022-08-28T02:39:14.078Z,101387.97
2022-08-28T02:41:40.892Z,101388.59
2022-08-28T02:44:07.554Z,101387.47
2022-08-28T02:46:34.296Z,101388.69
2022-08-28T02:49:01.040Z,101394.16
2022-08-28T02:51:31.167Z,101393.81
2022-08-28T02:53:57.803Z,101400.63
2022-08-28T02:56:24.881Z,101395.75
2022-08-28T02:58:51.826Z,101398.81
2022-08-28T03:01:20.723Z,101394.03
2022-08-28T03:03:47.765Z,101388.56
2022-08-28T03:06:14.653Z,101388.28
2022-08-28T03:08:42.200Z,101393.34
2022-08-28T03:11:09.299Z,101390.63
2022-08-28T03:13:36.058Z,101386.09
2022-08-28T03:16:04.862Z,101384.84
2022-08-28T03:18:33.281Z,101383.75
2022-08-28T03:21:00.479Z,101372.28
2022-08-28T03:23:27.471Z,101379.09
2022-08-28T03:26:00.173Z,101385.19
2022-08-28T03:28:28.574Z,101378.38
2022-08-28T03:30:55.469Z,101376.38
2022-08-28T03:33:22.556Z,101378.94
2022-08-28T03:35:50.092Z,101374.56
2022-08-28T03:38:17.880Z,101375.91
2022-08-28T03:40:46.382Z,101382.13
2022-08-28T03:43:15.552Z,101385.31
2022-08-28T03:45:52.152Z,101399.34
2022-08-28T03:48:20.205Z,101400.25
2022-08-28T03:50:47.759Z,101398.25
2022-08-28T03:53:16.014Z,101409.34
2022-08-28T03:55:42.984Z,101415.19
2022-08-28T03:58:09.737Z,101419.47
2022-08-28T04:00:46.303Z,101415.09
2022-08-28T04:03:13.610Z,101427.19
2022-08-28T04:05:41.741Z,101423.91
2022-08-28T04:08:08.948Z,101420.00
2022-08-28T04:10:36.851Z,101418.28
2022-08-28T04:13:03.874Z,101421.84
2022-08-28T04:15:30.607Z,101418.19
2022-08-28T04:17:57.579Z,101420.25
2022-08-28T04:20:24.336Z,101423.91
2022-08-28T04:22:55.064Z,101420.69
2022-08-28T04:25:23.735Z,101416.91
2022-08-28T04:27:52.149Z,101422.09
2022-08-28T04:30:19.143Z,101430.03
2022-08-28T04:32:45.825Z,101432.59
2022-08-28T04:35:13.541Z,101423.63
2022-08-28T04:37:40.903Z,101431.31
2022-08-28T04:40:11.014Z,101432.06
2022-08-28T04:42:38.688Z,101428.25
2022-08-28T04:45:06.505Z,101440.00
2022-08-28T04:47:38.064Z,101436.53
2022-08-28T04:50:06.517Z,101444.97
2022-08-28T04:52:33.404Z,101443.25
2022-08-28T04:55:00.164Z,101443.63
2022-08-28T04:57:26.914Z,101442.94
2022-08-28T04:59:53.896Z,101449.06
2022-08-28T05:02:20.590Z,101449.31
2022-08-28T05:04:47.442Z,101441.53
2022-08-28T05:07:14.374Z,101443.47
2022-08-28T05:09:41.141Z,101443.63
2022-08-28T05:12:07.922Z,101450.63
2022-08-28T05:14:36.724Z,101455.13
2022-08-28T05:17:03.432Z,101455.13
2022-08-28T05:19:30.297Z,101455.38
2022-08-28T05:21:57.124Z,101458.41
2022-08-28T05:24:23.929Z,101461.22
2022-08-28T05:26:50.614Z,101467.81
2022-08-28T05:29:17.442Z,101471.28
2022-08-28T05:31:44.708Z,101465.34
2022-08-28T05:34:13.135Z,101470.31
2022-08-28T05:36:40.280Z,101471.34
2022-08-28T05:39:09.906Z,101471.66
2022-08-28T05:41:37.113Z,101475.81
2022-08-28T05:44:07.071Z,101473.34
2022-08-28T05:46:35.998Z,101471.63
2022-08-28T05:49:06.626Z,101478.38
2022-08-28T05:51:36.340Z,101478.06
2022-08-28T05:54:03.936Z,101482.47
2022-08-28T05:56:32.895Z,101483.81
2022-08-28T05:59:01.104Z,101485.56
2022-08-28T06:01:30.542Z,101490.94
2022-08-28T06:04:09.263Z,101488.84
2022-08-28T06:06:39.381Z,101484.78
2022-08-28T06:09:14.082Z,101491.22
2022-08-28T06:11:46.149Z,101487.03
2022-08-28T06:14:15.770Z,101491.59
2022-08-28T06:16:45.976Z,101493.34
2022-08-28T06:19:13.397Z,101496.88
2022-08-28T06:21:41.665Z,101498.22
2022-08-28T06:24:10.194Z,101498.50
2022-08-28T06:26:37.159Z,101497.25
2022-08-28T06:29:10.842Z,101495.53
2022-08-28T06:31:37.776Z,101503.00
2022-08-28T06:34:04.791Z,101499.31
2022-08-28T06:36:34.634Z,101502.91
2022-08-28T06:39:04.116Z,101508.75
2022-08-28T06:41:32.520Z,101514.75
2022-08-28T06:43:59.644Z,101504.59
2022-08-28T06:46:27.004Z,101513.19
2022-08-28T06:48:53.796Z,101512.53
2022-08-28T06:51:20.585Z,101517.22
2022-08-28T06:53:51.662Z,101522.13
2022-08-28T06:56:25.907Z,101526.47
2022-08-28T06:58:54.360Z,101518.56
2022-08-28T07:01:29.389Z,101521.75
2022-08-28T07:04:02.449Z,101529.31
2022-08-28T07:06:32.658Z,101524.56
2022-08-28T07:08:59.344Z,101528.91
2022-08-28T07:11:28.939Z,101532.28
2022-08-28T07:13:56.682Z,101525.53
2022-08-28T07:16:27.520Z,101536.47
2022-08-28T07:18:54.492Z,101540.25
2022-08-28T07:21:21.524Z,101531.84
2022-08-28T07:23:48.819Z,101531.59
2022-08-28T07:26:19.588Z,101534.28
2022-08-28T07:28:48.195Z,101542.84
2022-08-28T07:31:22.021Z,101536.75
2022-08-28T07:33:50.818Z,101540.91
2022-08-28T07:36:29.788Z,101541.88
2022-08-28T07:38:58.181Z,101544.31
2022-08-28T07:41:31.703Z,101542.00
2022-08-28T07:44:17.521Z,101541.50
2022-08-28T07:46:47.583Z,101546.28
2022-08-28T07:49:17.264Z,101542.50
2022-08-28T07:51:46.736Z,101548.59
2022-08-28T07:54:18.255Z,101546.16
2022-08-28T07:56:46.104Z,101550.78
2022-08-28T07:59:16.603Z,101555.34
2022-08-28T08:01:46.737Z,101562.53
2022-08-28T08:04:16.334Z,101558.38
2022-08-28T08:06:44.055Z,101565.22
2022-08-28T08:09:14.113Z,101560.94
2022-08-28T08:11:41.330Z,101559.00
2022-08-28T08:14:08.505Z,101562.41
2022-08-28T08:16:39.219Z,101555.78
2022-08-28T08:19:09.877Z,101558.25
2022-08-28T08:21:37.628Z,101551.41
2022-08-28T08:24:05.094Z,101561.06
2022-08-28T08:26:32.675Z,101569.25
2022-08-28T08:28:59.768Z,101560.59
2022-08-28T08:31:29.700Z,101569.53
2022-08-28T08:33:59.363Z,101560.22
2022-08-28T08:36:27.268Z,101560.69
2022-08-28T08:38:59.340Z,101566.69
2022-08-28T08:41:39.484Z,101571.69
2022-08-28T08:44:15.138Z,101572.06
2022-08-28T08:46:42.036Z,101568.13
2022-08-28T08:49:22.577Z,101571.16
2022-08-28T08:52:13.443Z,101569.69
2022-08-28T08:54:45.087Z,101576.28
2022-08-28T08:57:14.455Z,101569.75
2022-08-28T08:59:41.948Z,101579.44
2022-08-28T09:02:14.989Z,101581.53
2022-08-28T09:04:56.439Z,101579.63
2022-08-28T09:07:31.887Z,101573.63
2022-08-28T09:09:58.638Z,101577.25
2022-08-28T09:12:30.818Z,101574.38
2022-08-28T09:15:05.829Z,101571.78
2022-08-28T09:17:37.607Z,101569.69
2022-08-28T09:20:10.230Z,101569.56
2022-08-28T09:22:38.763Z,101570.41
2022-08-28T09:25:06.352Z,101571.56
2022-08-28T09:27:39.573Z,101564.78
2022-08-28T09:30:09.037Z,101566.16
2022-08-28T09:32:44.718Z,101572.00
2022-08-28T09:35:28.600Z,101570.47
2022-08-28T09:37:58.808Z,101574.69
2022-08-28T09:40:48.012Z,101571.84
2022-08-28T09:43:36.982Z,101577.47
2022-08-28T09:46:08.241Z,101572.13
2022-08-28T09:48:43.736Z,101574.31
2022-08-28T09:51:14.810Z,101583.28
2022-08-28T09:53:50.705Z,101578.75
2022-08-28T09:56:31.532Z,101582.03
2022-08-28T09:59:05.877Z,101586.16
2022-08-28T10:01:35.513Z,101586.72
2022-08-28T10:04:15.644Z,101577.03
2022-08-28T10:06:49.634Z,101571.00
2022-08-28T10:09:45.124Z,101577.19
2022-08-28T10:12:26.832Z,101566.63
2022-08-28T10:15:12.303Z,101575.66
2022-08-28T10:17:48.722Z,101565.53
2022-08-28T10:20:26.725Z,101573.72
2022-08-28T10:23:03.765Z,101581.06
2022-08-28T10:25:54.450Z,101574.66
2022-08-28T10:28:40.644Z,101566.50
2022-08-28T10:32:03.802Z,101562.13
2022-08-28T10:34:52.297Z,101561.69
2022-08-28T10:37:38.432Z,101569.47
2022-08-28T10:40:18.539Z,101571.16
2022-08-28T10:43:05.318Z,101574.50
2022-08-28T10:45:33.387Z,101573.72
2022-08-28T10:48:28.558Z,101570.50
2022-08-28T10:51:05.332Z,101564.31
2022-08-28T10:53:35.065Z,101564.03
2022-08-28T10:56:07.527Z,101569.53
2022-08-28T10:58:37.657Z,101571.75
2022-08-28T11:01:11.425Z,101577.66
2022-08-28T11:03:43.686Z,101561.91
2022-08-28T11:06:25.548Z,101570.63
2022-08-28T11:08:55.353Z,101561.19
2022-08-28T11:12:09.718Z,101564.75
2022-08-28T11:14:47.807Z,101572.19
2022-08-28T11:17:30.678Z,101568.66
2022-08-28T11:20:09.598Z,101570.94
2022-08-28T11:22:41.862Z,101570.59
2022-08-28T11:25:26.531Z,101563.84
2022-08-28T11:28:19.825Z,101564.16
2022-08-28T11:30:49.040Z,101575.03
2022-08-28T11:33:36.061Z,101582.19
2022-08-28T11:36:03.935Z,101579.31
2022-08-28T11:38:43.444Z,101573.03
2022-08-28T11:41:34.604Z,101573.16
2022-08-28T11:44:04.489Z,101570.28
2022-08-28T11:46:38.593Z,101568.25
2022-08-28T11:49:26.778Z,101570.13
2022-08-28T11:52:14.831Z,101569.47
2022-08-28T11:54:54.423Z,101569.63
2022-08-28T11:57:25.973Z,101571.44
2022-08-28T12:00:05.385Z,101568.31
2022-08-28T12:02:41.311Z,101559.22
2022-08-28T12:05:34.163Z,101560.09
2022-08-28T12:08:02.800Z,101555.38
2022-08-28T12:10:34.694Z,101559.50
2022-08-28T12:13:07.537Z,101569.72
2022-08-28T12:15:34.501Z,101564.56
2022-08-28T12:18:39.102Z,101556.63
2022-08-28T12:21:07.554Z,101550.34
2022-08-28T12:23:37.257Z,101554.97
2022-08-28T12:26:32.793Z,101550.31
2022-08-28T12:29:31.909Z,101555.03
2022-08-28T12:32:13.850Z,101547.00
2022-08-28T12:34:58.843Z,101542.38
2022-08-28T12:37:52.048Z,101545.44
2022-08-28T12:40:19.764Z,101540.28
2022-08-28T12:42:55.246Z,101537.03
2022-08-28T12:45:43.312Z,101534.34
2022-08-28T12:48:28.183Z,101542.19
2022-08-28T12:51:10.697Z,101544.41
2022-08-28T12:53:47.963Z,101545.59
2022-08-28T12:56:17.966Z,101538.63
2022-08-28T12:58:45.777Z,101534.63
2022-08-28T13:01:21.815Z,101535.69
2022-08-28T13:03:59.705Z,101538.63
2022-08-28T13:06:31.759Z,101532.88
2022-08-28T13:09:05.028Z,101537.38
2022-08-28T13:11:38.757Z,101538.44
2022-08-28T13:14:09.590Z,101535.38
2022-08-28T13:17:04.494Z,101528.19
2022-08-28T13:19:32.816Z,101524.19
2022-08-28T13:22:31.650Z,101528.31
2022-08-28T13:25:05.613Z,101506.75
2022-08-28T13:27:32.727Z,101519.72
2022-08-28T13:30:21.256Z,101516.16
2022-08-28T13:33:20.890Z,101519.97
2022-08-28T13:35:48.867Z,101520.47
2022-08-28T13:38:17.921Z,101517.78
2022-08-28T13:40:59.337Z,101518.00
2022-08-28T13:43:29.280Z,101502.00
2022-08-28T13:47:09.873Z,101507.19
2022-08-28T13:49:28.484Z,101511.25
2022-08-28T13:51:59.763Z,101512.59
2022-08-28T13:54:27.267Z,101510.56
2022-08-28T13:56:55.453Z,101510.28
2022-08-28T13:59:23.515Z,101505.88
2022-08-28T14:02:11.824Z,101494.16
2022-08-28T14:04:38.576Z,101506.88
2022-08-28T14:07:05.378Z,101502.06
2022-08-28T14:09:32.650Z,101502.88
2022-08-28T14:12:00.227Z,101499.19
2022-08-28T14:14:27.028Z,101498.59
2022-08-28T14:16:54.475Z,101499.38
2022-08-28T14:19:21.816Z,101501.09
2022-08-28T14:21:48.892Z,101487.53
2022-08-28T14:24:15.871Z,101491.53
2022-08-28T14:26:42.755Z,101485.31
2022-08-28T14:29:11.929Z,101482.88
2022-08-28T14:31:41.161Z,101475.88
2022-08-28T14:34:09.829Z,101485.16
2022-08-28T14:36:42.607Z,101479.31
2022-08-28T14:39:10.897Z,101477.31
2022-08-28T14:41:37.926Z,101470.50
2022-08-28T14:44:04.908Z,101478.00
2022-08-28T14:46:36.930Z,101477.13
2022-08-28T14:49:07.369Z,101481.28
2022-08-28T14:51:35.748Z,101480.22
2022-08-28T14:54:03.078Z,101474.31
2022-08-28T14:56:31.626Z,101480.88
2022-08-28T14:59:03.487Z,101473.56
2022-08-28T15:01:41.248Z,101470.34
2022-08-28T15:04:11.523Z,101479.19
2022-08-28T15:06:42.623Z,101474.59
2022-08-28T15:09:11.372Z,101483.78
2022-08-28T15:11:38.555Z,101480.22
2022-08-28T15:14:06.664Z,101474.63
2022-08-28T15:16:46.891Z,101480.06
2022-08-28T15:19:18.108Z,101489.22
2022-08-28T15:21:55.479Z,101481.44
2022-08-28T15:24:28.819Z,101476.97
2022-08-28T15:26:59.056Z,101485.16
2022-08-28T15:29:27.622Z,101478.63
2022-08-28T15:31:54.607Z,101474.56
2022-08-28T15:34:26.748Z,101466.59
2022-08-28T15:36:58.852Z,101462.66
2022-08-28T15:39:48.701Z,101468.47
2022-08-28T15:42:16.094Z,101469.66
2022-08-28T15:44:43.269Z,101467.81
2022-08-28T15:47:14.356Z,101477.84
2022-08-28T15:49:53.608Z,101473.09
2022-08-28T15:52:20.740Z,101470.88
2022-08-28T15:54:53.448Z,101472.59
2022-08-28T15:57:20.476Z,101468.31
2022-08-28T15:59:48.991Z,101468.66
2022-08-28T16:02:21.196Z,101471.22
2022-08-28T16:04:48.722Z,101465.78
2022-08-28T16:07:15.609Z,101464.91
2022-08-28T16:09:42.441Z,101463.72
2022-08-28T16:12:09.287Z,101463.03
2022-08-28T16:14:36.333Z,101459.13
2022-08-28T16:17:05.857Z,101468.13
2022-08-28T16:19:39.862Z,101473.09
2022-08-28T16:22:16.056Z,101462.72
2022-08-28T16:24:51.361Z,101464.75
2022-08-28T16:27:18.434Z,101471.22
2022-08-28T16:29:45.574Z,101474.94
2022-08-28T16:32:12.940Z,101478.00
2022-08-28T16:34:40.102Z,101471.19
2022-08-28T16:37:08.044Z,101477.19
2022-08-28T16:39:35.522Z,101474.94
2022-08-28T16:42:02.193Z,101472.88
2022-08-28T16:44:29.081Z,101468.31
2022-08-28T16:46:56.324Z,101473.22
2022-08-28T16:49:23.984Z,101462.03
2022-08-28T16:51:51.044Z,101463.88
2022-08-28T16:54:18.443Z,101462.88
2022-08-28T16:56:45.969Z,101459.66
2022-08-28T16:59:16.592Z,101469.31
2022-08-28T17:01:43.669Z,101467.47
2022-08-28T17:04:12.443Z,101470.25
2022-08-28T17:06:56.989Z,101457.19
2022-08-28T17:09:24.140Z,101462.44
2022-08-28T17:11:57.435Z,101457.91
2022-08-28T17:14:26.459Z,101465.38
2022-08-28T17:16:53.317Z,101465.50
2022-08-28T17:19:24.528Z,101469.38
2022-08-28T17:22:10.283Z,101470.50
2022-08-28T17:24:37.037Z,101471.44
2022-08-28T17:27:05.911Z,101471.22
2022-08-28T17:29:34.742Z,101464.19
2022-08-28T17:32:02.011Z,101466.44
2022-08-28T17:34:30.458Z,101474.13
2022-08-28T17:36:57.638Z,101471.06
2022-08-28T17:39:25.497Z,101473.34
2022-08-28T17:41:52.228Z,101476.41
2022-08-28T17:44:18.974Z,101470.44
2022-08-28T17:46:46.100Z,101471.03
2022-08-28T17:49:12.809Z,101476.06
2022-08-28T17:51:42.869Z,101486.28
2022-08-28T17:54:15.512Z,101486.78
2022-08-28T17:56:42.682Z,101487.50
2022-08-28T17:59:11.474Z,101487.22
2022-08-28T18:01:38.671Z,101492.22
2022-08-28T18:04:14.221Z,101494.16
2022-08-28T18:06:41.071Z,101495.13
2022-08-28T18:09:09.005Z,101497.44
2022-08-28T18:11:35.801Z,101491.19
2022-08-28T18:14:02.626Z,101499.88
2022-08-28T18:16:41.901Z,101497.19
2022-08-28T18:19:10.413Z,101503.91
2022-08-28T18:21:38.625Z,101502.13
2022-08-28T18:24:06.017Z,101504.38
2022-08-28T18:26:33.573Z,101509.94
2022-08-28T18:29:00.231Z,101503.41
2022-08-28T18:31:27.022Z,101510.25
2022-08-28T18:33:54.500Z,101521.59
2022-08-28T18:36:23.201Z,101519.75
2022-08-28T18:38:50.655Z,101521.22
2022-08-28T18:41:17.483Z,101529.78
2022-08-28T18:43:44.363Z,101527.56
2022-08-28T18:46:11.768Z,101535.78
2022-08-28T18:48:38.649Z,101534.38
2022-08-28T18:51:07.923Z,101536.50
2022-08-28T18:53:34.816Z,101532.25
2022-08-28T18:56:02.658Z,101543.50
2022-08-28T18:58:31.458Z,101538.94
2022-08-28T19:01:00.213Z,101542.19
2022-08-28T19:03:26.988Z,101539.09
2022-08-28T19:05:55.095Z,101542.91
2022-08-28T19:08:22.993Z,101548.31
2022-08-28T19:10:50.244Z,101549.44
2022-08-28T19:13:16.988Z,101555.88
2022-08-28T19:15:50.102Z,101556.72
2022-08-28T19:18:17.466Z,101561.66
2022-08-28T19:20:44.393Z,101561.19
2022-08-28T19:23:15.512Z,101567.56
2022-08-28T19:25:46.964Z,101566.97
2022-08-28T19:28:14.043Z,101567.84
2022-08-28T19:30:41.115Z,101567.41
2022-08-28T19:33:07.998Z,101572.38
2022-08-28T19:35:34.922Z,101575.38
2022-08-28T19:38:02.087Z,101576.09
2022-08-28T19:40:29.284Z,101575.75
2022-08-28T19:42:56.185Z,101579.75
2022-08-28T19:45:23.386Z,101587.84
2022-08-28T19:47:50.245Z,101594.34
2022-08-28T19:50:17.448Z,101590.56
2022-08-28T19:52:44.941Z,101597.66
2022-08-28T19:55:23.529Z,101601.66
2022-08-28T20:00:21.065Z,101599.47
2022-08-28T20:02:48.539Z,101597.22
2022-08-28T20:05:15.453Z,101591.09
2022-08-28T20:07:45.017Z,101598.44
2022-08-28T20:10:12.408Z,101603.72
2022-08-28T20:12:39.458Z,101606.66
2022-08-28T20:15:16.026Z,101595.97
2022-08-28T20:17:44.155Z,101591.97
2022-08-28T20:20:18.692Z,101603.50
2022-08-28T20:22:45.533Z,101604.34
2022-08-28T20:25:12.316Z,101606.94
2022-08-28T20:27:41.806Z,101609.19
2022-08-28T20:30:10.663Z,101612.94
2022-08-28T20:32:40.049Z,101624.06
2022-08-28T20:35:08.830Z,101620.38
2022-08-28T20:37:44.992Z,101625.44
2022-08-28T20:40:14.738Z,101625.44
2022-08-28T20:42:41.616Z,101619.91
2022-08-28T20:45:09.274Z,101625.44
2022-08-28T20:47:36.576Z,101629.50
2022-08-28T20:50:04.185Z,101630.34
2022-08-28T20:52:30.929Z,101636.88
2022-08-28T20:54:58.297Z,101631.53
2022-08-28T20:57:25.340Z,101641.22
2022-08-28T20:59:54.324Z,101636.75
2022-08-28T21:02:24.381Z,101638.38
2022-08-28T21:04:52.069Z,101636.50
2022-08-28T21:07:20.835Z,101638.66
2022-08-28T21:10:04.330Z,101643.44
2022-08-28T21:12:33.473Z,101641.13
2022-08-28T21:15:00.374Z,101659.88
2022-08-28T21:17:30.116Z,101648.59
2022-08-28T21:20:11.529Z,101647.00
2022-08-28T21:22:39.541Z,101652.38
2022-08-28T21:25:08.375Z,101653.84
2022-08-28T21:27:35.294Z,101663.03
2022-08-28T21:30:02.460Z,101666.84
2022-08-28T21:32:30.183Z,101671.53
2022-08-28T21:34:56.936Z,101663.69
2022-08-28T21:37:24.035Z,101665.53
2022-08-28T21:39:50.942Z,101662.25
2022-08-28T21:42:17.805Z,101671.69
2022-08-28T21:44:51.189Z,101665.97
2022-08-28T21:47:20.158Z,101668.31
2022-08-28T21:49:51.037Z,101670.91
2022-08-28T21:52:19.378Z,101676.28
2022-08-28T21:54:46.336Z,101674.72
2022-08-28T21:57:13.173Z,101677.63
2022-08-28T21:59:40.131Z,101678.53
2022-08-28T22:02:07.368Z,101677.91
2022-08-28T22:04:34.858Z,101679.38
2022-08-28T22:07:01.806Z,101675.94
2022-08-28T22:09:29.206Z,101671.78
2022-08-28T22:11:55.990Z,101675.31
2022-08-28T22:14:25.246Z,101676.06
2022-08-28T22:16:52.366Z,101679.97
2022-08-28T22:19:19.224Z,101674.25
2022-08-28T22:22:04.367Z,101674.63
2022-08-28T22:24:31.081Z,101676.94
2022-08-28T22:26:57.919Z,101666.81
2022-08-28T22:29:25.039Z,101672.94
2022-08-28T22:31:52.709Z,101676.13
2022-08-28T22:34:19.562Z,101674.16
2022-08-28T22:36:46.313Z,101677.59
2022-08-28T22:39:13.000Z,101677.34
2022-08-28T22:41:40.441Z,101678.78
2022-08-28T22:44:07.858Z,101682.59
2022-08-28T22:46:34.775Z,101679.56
2022-08-28T22:49:01.658Z,101679.56
2022-08-28T22:51:28.385Z,101674.91
2022-08-28T22:53:55.916Z,101672.09
2022-08-28T22:56:22.673Z,101676.03
2022-08-28T22:58:49.404Z,101668.56
2022-08-28T23:01:23.075Z,101672.97
2022-08-28T23:03:50.270Z,101669.41
2022-08-28T23:06:18.781Z,101675.53
2022-08-28T23:08:45.545Z,101660.81
2022-08-28T23:11:12.491Z,101664.72
2022-08-28T23:13:39.920Z,101666.88
2022-08-28T23:16:07.135Z,101667.00
2022-08-28T23:18:51.667Z,101665.66
2022-08-28T23:21:23.959Z,101672.88
2022-08-28T23:23:53.270Z,101668.09
2022-08-28T23:26:21.678Z,101668.97
2022-08-28T23:28:48.640Z,101670.28
2022-08-28T23:31:18.622Z,101659.19
2022-08-28T23:33:46.150Z,101663.84
2022-08-28T23:36:13.230Z,101668.47
2022-08-28T23:38:43.039Z,101658.53
2022-08-28T23:41:10.889Z,101654.78
2022-08-28T23:43:38.988Z,101644.75
2022-08-28T23:46:06.033Z,101649.44
2022-08-28T23:48:33.206Z,101647.72
2022-08-28T23:51:02.387Z,101646.13
2022-08-28T23:53:29.307Z,101650.16
2022-08-28T23:55:57.534Z,101651.38
2022-08-28T23:58:28.472Z,101659.94
